Time;durP1;ratioP1;P1;durP2;ratioP2;P2;SDS_P1;SDS_P2;PMS_P1;PMS_P2;Temp;Humidity;BMP_temperature;BMP_pressure;BME280_temperature;BME280_humidity;BME280_pressure;Samples;Min_cycle;Max_cycle;Signal;HPM_P1;HPM_P2
2021/07/15 00:01:55;;;;;;;10.50;8.43;;;;;;;29.92;54.13;99686.03;1773697;80;21093;-72
2021/07/15 00:04:23;;;;;;;12.70;9.90;;;;;;;29.92;54.32;99684.66;1788714;80;22161;-72
2021/07/15 00:06:49;;;;;;;10.55;9.55;;;;;;;29.92;54.12;99686.56;1747863;81;21005;-72
2021/07/15 00:09:18;;;;;;;10.10;8.38;;;;;;;29.82;54.12;99667.56;1743611;81;21549;-72
2021/07/15 00:11:47;;;;;;;10.35;9.43;;;;;;;29.90;53.95;99681.41;1754774;81;21069;-72
2021/07/15 00:14:19;;;;;;;9.55;8.45;;;;;;;29.90;54.03;99677.83;1734395;81;21089;-73
2021/07/15 00:16:51;;;;;;;10.75;9.75;;;;;;;29.90;54.18;99673.19;1739672;80;21038;-74
2021/07/15 00:19:19;;;;;;;10.70;9.53;;;;;;;29.89;54.08;99679.77;1752701;81;21082;-73
2021/07/15 00:21:46;;;;;;;11.05;9.40;;;;;;;29.89;54.08;99676.23;1743980;81;21121;-72
2021/07/15 00:24:15;;;;;;;10.63;9.45;;;;;;;29.89;54.00;99678.40;1772701;80;21064;-73
2021/07/15 00:26:47;;;;;;;9.30;8.30;;;;;;;29.89;53.92;99676.23;1774463;80;21093;-73
2021/07/15 00:29:14;;;;;;;10.50;9.40;;;;;;;29.89;53.86;99675.66;1786078;80;22201;-74
2021/07/15 00:31:43;;;;;;;11.15;9.20;;;;;;;29.88;53.92;99678.16;1769453;80;21113;-73
2021/07/15 00:34:09;;;;;;;10.23;9.03;;;;;;;29.88;53.82;99680.06;1773541;80;21065;-73
2021/07/15 00:36:37;;;;;;;11.22;9.98;;;;;;;29.88;53.73;99677.32;1785105;78;21076;-74
2021/07/15 00:39:06;;;;;;;11.00;9.90;;;;;;;29.87;53.70;99679.81;1784052;80;21081;-74
2021/07/15 00:41:33;;;;;;;13.00;9.83;;;;;;;29.86;53.57;99672.14;1786669;80;21124;-74
2021/07/15 00:44:00;;;;;;;10.70;9.60;;;;;;;29.86;53.76;99674.88;1771125;80;21517;-73
2021/07/15 00:46:28;;;;;;;10.50;9.18;;;;;;;29.86;53.58;99668.03;1788686;80;21293;-73
2021/07/15 00:48:57;;;;;;;9.80;8.88;;;;;;;29.86;53.63;99674.06;1763736;78;21564;-72
2021/07/15 00:51:23;;;;;;;10.88;9.70;;;;;;;29.85;53.45;99669.72;1795409;79;21044;-72
2021/07/15 00:53:50;;;;;;;10.72;9.43;;;;;;;29.85;53.63;99674.63;1821017;78;21080;-72
2021/07/15 00:56:17;;;;;;;11.43;10.18;;;;;;;29.84;53.55;99672.19;1828383;78;22171;-74
2021/07/15 00:58:45;;;;;;;12.43;10.32;;;;;;;29.83;53.50;99670.02;1814102;78;21508;-72
2021/07/15 01:01:11;;;;;;;11.28;9.90;;;;;;;29.83;53.42;99674.13;1830342;78;21023;-73
2021/07/15 01:03:38;;;;;;;12.93;10.43;;;;;;;29.83;53.49;99674.13;1775575;79;21569;-73
2021/07/15 01:06:06;;;;;;;11.93;10.08;;;;;;;29.83;53.29;99668.64;1829161;78;20989;-74
2021/07/15 01:08:32;;;;;;;11.50;10.30;;;;;;;29.83;53.29;99679.59;1824997;78;21301;-73
2021/07/15 01:11:09;;;;;;;12.18;10.08;;;;;;;29.82;53.24;99680.69;1828543;78;21081;-73
2021/07/15 01:13:51;;;;;;;11.73;10.40;;;;;;;29.83;53.23;99678.79;1812375;78;21057;-73
2021/07/15 01:16:33;;;;;;;12.88;11.57;;;;;;;29.82;53.15;99678.52;1797517;78;21082;-73
2021/07/15 01:19:28;;;;;;;13.40;10.72;;;;;;;29.79;53.14;99678.56;1796651;78;21520;-73
2021/07/15 01:22:14;;;;;;;13.83;10.23;;;;;;;29.79;53.15;99682.67;1825085;78;20985;-72
2021/07/15 01:25:28;;;;;;;12.43;9.98;;;;;;;29.75;53.01;99682.45;1802944;78;21518;-73
2021/07/15 01:28:17;;;;;;;12.58;10.88;;;;;;;29.75;53.08;99678.91;1811184;78;21616;-73
2021/07/15 01:30:49;;;;;;;13.35;10.50;;;;;;;29.73;53.19;99681.13;1817557;78;21005;-72
2021/07/15 01:33:21;;;;;;;13.40;11.57;;;;;;;29.71;53.20;99683.30;1781267;79;21464;-73
2021/07/15 01:36:02;;;;;;;15.08;10.53;;;;;;;29.69;53.14;99682.25;1817557;78;21054;-73
2021/07/15 01:38:32;;;;;;;14.03;10.55;;;;;;;29.69;53.33;99686.35;1797997;79;21030;-72
2021/07/15 01:41:09;;;;;;;13.80;10.70;;;;;;;29.69;53.21;99684.15;1813140;78;21094;-73
2021/07/15 01:43:45;;;;;;;16.70;9.88;;;;;;;29.68;53.05;99679.80;1823717;78;21048;-73
2021/07/15 01:46:13;;;;;;;13.43;11.25;;;;;;;29.69;53.23;99682.78;1829560;77;22083;-72
2021/07/15 01:48:41;;;;;;;15.78;10.25;;;;;;;29.67;53.26;99678.16;1829215;78;21033;-73
2021/07/15 01:51:08;;;;;;;12.47;10.40;;;;;;;29.66;53.21;99684.20;1816883;78;20989;-73
2021/07/15 01:53:36;;;;;;;11.83;10.15;;;;;;;29.67;53.10;99689.95;1784293;80;21019;-72
2021/07/15 01:56:03;;;;;;;15.48;11.35;;;;;;;29.68;53.00;99693.48;1814142;77;21003;-73
2021/07/15 01:58:33;;;;;;;12.82;11.53;;;;;;;29.66;52.93;99688.30;1825828;78;21548;-72
2021/07/15 02:01:00;;;;;;;11.73;10.03;;;;;;;29.68;52.88;99688.81;1825508;78;21556;-72
2021/07/15 02:03:28;;;;;;;11.38;10.25;;;;;;;29.67;52.75;99694.58;1791887;79;21588;-73
2021/07/15 02:05:57;;;;;;;12.53;9.93;;;;;;;29.67;52.69;99694.58;1743845;80;21076;-72
2021/07/15 02:08:24;;;;;;;15.50;11.33;;;;;;;29.67;52.60;99703.63;1765305;80;21050;-72
2021/07/15 02:10:52;;;;;;;13.30;10.78;;;;;;;29.66;52.59;99691.03;1778589;78;20978;-73
2021/07/15 02:13:20;;;;;;;13.08;10.65;;;;;;;29.67;52.43;99694.58;1815212;78;20998;-73
2021/07/15 02:15:47;;;;;;;11.00;9.88;;;;;;;29.67;52.42;99692.68;1707452;78;21516;-73
2021/07/15 02:18:16;;;;;;;12.95;10.63;;;;;;;29.67;52.40;99687.20;1797046;79;21085;-74
2021/07/15 02:20:44;;;;;;;11.38;10.15;;;;;;;29.67;52.35;99693.22;1795280;79;21619;-72
2021/07/15 02:23:10;;;;;;;11.45;9.75;;;;;;;29.66;52.30;99691.60;1802489;79;21150;-73
2021/07/15 02:25:40;;;;;;;14.30;10.40;;;;;;;29.66;52.34;99692.97;1796917;79;21023;-72
2021/07/15 02:28:09;;;;;;;11.20;10.05;;;;;;;29.66;52.37;99698.45;1789580;79;21087;-72
2021/07/15 02:30:36;;;;;;;11.55;10.38;;;;;;;29.65;52.36;99697.64;1770432;80;21046;-72
2021/07/15 02:33:12;;;;;;;11.43;10.08;;;;;;;29.65;52.32;99694.06;1777844;80;21068;-73
2021/07/15 02:35:43;;;;;;;14.65;10.05;;;;;;;29.65;52.25;99692.70;1821979;78;21145;-74
2021/07/15 02:38:12;;;;;;;12.20;10.78;;;;;;;29.65;52.33;99696.80;1823941;78;21068;-74
2021/07/15 02:40:39;;;;;;;11.33;10.23;;;;;;;29.64;52.30;99697.37;1808769;78;21083;-73
2021/07/15 02:43:06;;;;;;;14.93;10.60;;;;;;;29.64;52.14;99703.41;1806529;78;21061;-74
2021/07/15 02:45:32;;;;;;;10.72;9.60;;;;;;;29.64;52.24;99708.31;1759211;80;21031;-75
2021/07/15 02:47:59;;;;;;;16.50;10.43;;;;;;;29.64;52.31;99702.03;1757717;80;21147;-73
2021/07/15 02:50:27;;;;;;;11.90;10.30;;;;;;;29.59;52.34;99691.42;1791566;79;21019;-73
2021/07/15 02:52:55;;;;;;;13.38;10.05;;;;;;;29.64;52.25;99697.37;1795584;78;21048;-72
2021/07/15 02:55:23;;;;;;;10.63;9.50;;;;;;;29.64;52.30;99699.30;1784255;79;21029;-72
2021/07/15 02:58:26;;;;;;;12.25;10.43;;;;;;;29.63;52.44;99702.56;1778049;79;21090;-73
2021/07/15 03:01:03;;;;;;;11.83;10.08;;;;;;;29.63;52.34;99703.94;1744898;79;21600;-72
2021/07/15 03:03:59;;;;;;;11.25;10.15;;;;;;;29.60;52.51;99694.97;1804220;78;21005;-74
2021/07/15 03:06:40;;;;;;;11.30;9.78;;;;;;;29.59;52.49;99707.01;1812660;78;21038;-73
2021/07/15 03:09:11;;;;;;;12.13;11.00;;;;;;;29.58;52.51;99704.03;1761196;80;21053;-73
2021/07/15 03:11:51;;;;;;;14.58;9.98;;;;;;;29.56;52.77;99704.31;1813759;78;21013;-73
2021/07/15 03:14:18;;;;;;;12.13;10.88;;;;;;;29.56;52.77;99695.30;1800838;78;22200;-72
2021/07/15 03:16:45;;;;;;;16.42;10.90;;;;;;;29.55;52.77;99695.87;1812012;78;21084;-72
2021/07/15 03:19:14;;;;;;;12.13;9.95;;;;;;;29.55;52.69;99701.88;1792125;78;21104;-73
2021/07/15 03:21:42;;;;;;;10.70;9.65;;;;;;;29.55;52.46;99709.55;1820295;78;21073;-72
2021/07/15 03:24:13;;;;;;;11.28;9.95;;;;;;;29.50;52.54;99695.92;1781467;78;21498;-72
2021/07/15 03:26:40;;;;;;;12.10;10.35;;;;;;;29.54;52.66;99699.70;1777732;79;21132;-72
2021/07/15 03:29:08;;;;;;;11.73;10.32;;;;;;;29.54;52.53;99701.06;1801575;79;21066;-73
2021/07/15 03:31:35;;;;;;;10.68;9.68;;;;;;;29.54;52.84;99701.06;1801431;79;21025;-73
2021/07/15 03:34:03;;;;;;;10.93;10.00;;;;;;;29.56;52.64;99708.98;1801005;79;21039;-73
2021/07/15 03:36:32;;;;;;;11.03;10.10;;;;;;;29.55;52.74;99709.55;1787142;79;21110;-73
2021/07/15 03:38:58;;;;;;;11.78;10.58;;;;;;;29.56;52.65;99706.25;1801769;79;21881;-73
2021/07/15 03:41:25;;;;;;;11.28;10.18;;;;;;;29.56;52.75;99706.25;1801599;79;21061;-73
2021/07/15 03:43:51;;;;;;;10.68;9.73;;;;;;;29.57;52.65;99703.76;1791423;79;21070;-73
2021/07/15 03:46:18;;;;;;;10.70;9.53;;;;;;;29.57;52.77;99708.70;1792525;78;21045;-74
2021/07/15 03:48:46;;;;;;;10.60;9.70;;;;;;;29.57;52.86;99708.70;1793940;79;21033;-73
2021/07/15 03:51:15;;;;;;;11.75;10.38;;;;;;;29.58;52.75;99706.20;1795586;79;20997;-73
2021/07/15 03:53:43;;;;;;;11.22;10.15;;;;;;;29.58;52.59;99711.68;1801828;79;21031;-74
2021/07/15 03:56:13;;;;;;;13.83;10.32;;;;;;;29.60;52.62;99714.13;1799984;79;21068;-74
2021/07/15 03:58:44;;;;;;;10.65;9.65;;;;;;;29.59;52.59;99713.32;1780499;79;21576;-72
2021/07/15 04:01:11;;;;;;;10.95;9.83;;;;;;;29.62;52.49;99719.31;1788169;79;21068;-72
2021/07/15 04:05:07;;;;;;;12.53;10.05;;;;;;;29.68;52.56;99714.82;1865503;76;22258;-73
2021/07/15 04:07:35;;;;;;;11.85;10.63;;;;;;;29.62;52.85;99708.36;1810328;77;20989;-74
2021/07/15 04:10:03;;;;;;;11.78;10.03;;;;;;;29.64;52.46;99706.14;1805361;78;21175;-73
2021/07/15 04:12:29;;;;;;;11.65;10.20;;;;;;;29.65;52.69;99711.33;1818298;78;21064;-73
2021/07/15 04:15:08;;;;;;;11.15;10.05;;;;;;;29.65;52.44;99704.48;1821398;78;21532;-74
2021/07/15 04:17:52;;;;;;;11.12;10.05;;;;;;;29.67;52.48;99710.47;1828140;77;21592;-74
2021/07/15 04:20:19;;;;;;;12.35;10.20;;;;;;;29.67;52.52;99710.47;1824898;78;21007;-75
2021/07/15 04:22:50;;;;;;;11.70;10.58;;;;;;;29.68;52.53;99709.34;1815725;78;21548;-75
2021/07/15 04:25:19;;;;;;;11.35;10.15;;;;;;;29.69;52.82;99697.83;1785847;78;21033;-74
2021/07/15 04:27:48;;;;;;;9.98;9.10;;;;;;;29.70;52.67;99706.32;1809319;77;21056;-74
2021/07/15 04:30:18;;;;;;;10.82;9.90;;;;;;;29.72;52.52;99699.99;1816664;78;21099;-75
2021/07/15 04:32:53;;;;;;;11.20;9.30;;;;;;;29.73;52.38;99694.81;1820907;78;20981;-74
2021/07/15 04:35:20;;;;;;;10.70;9.63;;;;;;;29.75;52.44;99696.14;1820042;78;21580;-71
2021/07/15 04:37:46;;;;;;;11.08;9.95;;;;;;;29.76;52.76;99690.10;1808918;78;20998;-72
2021/07/15 04:40:16;;;;;;;10.82;9.83;;;;;;;29.77;52.30;99685.70;1824645;77;21088;-70
2021/07/15 04:42:43;;;;;;;10.50;9.55;;;;;;;29.78;52.14;99685.14;1807556;78;21091;-72
2021/07/15 04:45:11;;;;;;;11.30;10.30;;;;;;;29.79;52.18;99688.15;1814643;78;21037;-71
2021/07/15 04:47:43;;;;;;;11.28;10.18;;;;;;;29.81;51.99;99695.51;1811111;78;21150;-72
2021/07/15 04:50:15;;;;;;;12.33;10.63;;;;;;;29.82;52.15;99684.80;1816530;78;21521;-71
2021/07/15 04:52:43;;;;;;;11.83;10.75;;;;;;;29.85;51.84;99675.20;1822192;77;21017;-71
2021/07/15 04:55:10;;;;;;;10.93;10.00;;;;;;;29.86;51.66;99680.34;1826324;77;21033;-71
2021/07/15 04:57:37;;;;;;;11.45;10.15;;;;;;;29.87;51.68;99679.81;1824697;77;21056;-70
2021/07/15 05:00:08;;;;;;;11.83;10.72;;;;;;;29.89;51.53;99683.07;1821123;78;21131;-70
2021/07/15 05:02:35;;;;;;;11.85;10.65;;;;;;;29.90;51.60;99681.41;1796136;78;21045;-70
2021/07/15 05:05:04;;;;;;;11.45;10.03;;;;;;;29.91;51.36;99686.32;1799057;78;20966;-70
2021/07/15 05:07:32;;;;;;;11.65;10.58;;;;;;;29.91;51.40;99676.17;1790926;78;21123;-70
2021/07/15 05:09:59;;;;;;;11.75;10.65;;;;;;;29.92;51.24;99679.19;1786257;78;21035;-69
2021/07/15 05:12:25;;;;;;;11.57;10.48;;;;;;;29.93;51.21;99677.25;1805244;78;21109;-71
2021/07/15 05:14:52;;;;;;;11.80;10.63;;;;;;;29.93;51.10;99678.05;1807089;78;21446;-70
2021/07/15 05:17:19;;;;;;;11.57;10.53;;;;;;;29.94;51.04;99676.95;1820000;78;21068;-71
2021/07/15 05:19:47;;;;;;;11.68;10.32;;;;;;;29.95;51.03;99682.67;1823883;78;21006;-70
2021/07/15 05:22:13;;;;;;;11.68;10.48;;;;;;;29.95;51.02;99681.30;1807472;78;21077;-71
2021/07/15 05:24:39;;;;;;;12.35;11.25;;;;;;;29.97;51.05;99690.59;1812998;78;21082;-71
2021/07/15 05:27:06;;;;;;;11.40;10.43;;;;;;;29.98;51.20;99690.31;1821928;77;21525;-71
2021/07/15 05:29:32;;;;;;;11.35;10.35;;;;;;;29.99;50.98;99691.11;1825787;78;20986;-71
2021/07/15 05:32:01;;;;;;;11.38;10.20;;;;;;;30.00;50.90;99684.54;1803983;77;21005;-70
2021/07/15 05:34:28;;;;;;;11.38;10.48;;;;;;;30.01;50.84;99688.08;1820911;78;21242;-71
2021/07/15 05:36:54;;;;;;;10.98;10.08;;;;;;;30.02;50.77;99685.58;1820784;78;21111;-72
2021/07/15 05:39:20;;;;;;;11.83;10.63;;;;;;;30.02;50.76;99689.69;1807315;78;21029;-71
2021/07/15 05:41:47;;;;;;;11.85;10.32;;;;;;;30.04;50.73;99692.94;1815206;78;21005;-72
2021/07/15 05:44:13;;;;;;;10.93;9.98;;;;;;;30.04;50.67;99690.20;1813953;78;21075;-71
2021/07/15 05:46:40;;;;;;;12.10;10.60;;;;;;;30.05;50.63;99696.76;1812360;78;21049;-71
2021/07/15 05:49:07;;;;;;;11.53;10.05;;;;;;;30.06;50.67;99690.75;1815458;78;21132;-71
2021/07/15 05:51:33;;;;;;;10.98;10.08;;;;;;;30.06;50.53;99683.33;1818980;77;21052;-71
2021/07/15 05:54:01;;;;;;;11.88;9.73;;;;;;;30.07;50.53;99685.51;1810508;77;21052;-70
2021/07/15 05:56:27;;;;;;;11.43;10.23;;;;;;;30.07;50.51;99686.88;1816653;78;21006;-72
2021/07/15 05:58:55;;;;;;;10.28;9.28;;;;;;;30.08;50.52;99684.41;1816663;78;21528;-71
2021/07/15 06:01:21;;;;;;;11.45;10.45;;;;;;;30.09;50.56;99681.91;1820154;78;22081;-71
2021/07/15 06:03:48;;;;;;;11.80;10.18;;;;;;;30.09;50.46;99684.66;1815211;78;21021;-72
2021/07/15 06:06:15;;;;;;;10.48;9.50;;;;;;;30.10;50.38;99682.19;1808408;79;21018;-70
2021/07/15 06:08:41;;;;;;;11.85;10.30;;;;;;;30.10;50.33;99692.58;1800753;79;21501;-71
2021/07/15 06:11:09;;;;;;;10.93;9.90;;;;;;;30.11;50.38;99683.23;1809257;79;21022;-72
2021/07/15 06:13:36;;;;;;;10.53;9.28;;;;;;;30.11;50.31;99676.95;1800445;78;21193;-72
2021/07/15 06:16:04;;;;;;;11.25;10.15;;;;;;;30.11;50.31;99670.09;1802058;79;21077;-71
2021/07/15 06:18:32;;;;;;;11.10;10.20;;;;;;;30.13;50.35;99667.88;1782158;78;21044;-71
2021/07/15 06:20:58;;;;;;;12.15;10.55;;;;;;;30.13;50.26;99671.98;1788498;77;22511;-71
2021/07/15 06:23:27;;;;;;;11.22;10.13;;;;;;;30.13;50.33;99671.44;1793166;78;21054;-71
2021/07/15 06:25:53;;;;;;;10.88;9.73;;;;;;;30.14;50.39;99666.77;1809919;78;21110;-71
2021/07/15 06:28:20;;;;;;;11.00;9.90;;;;;;;30.15;50.16;99667.84;1791884;79;21466;-72
2021/07/15 06:30:47;;;;;;;11.57;10.40;;;;;;;30.15;49.40;99659.63;1805470;78;21081;-72
2021/07/15 06:33:14;;;;;;;13.50;9.65;;;;;;;30.15;48.71;99667.02;1812409;79;20991;-71
2021/07/15 06:35:41;;;;;;;11.03;9.98;;;;;;;30.15;48.40;99671.13;1809476;79;21514;-71
2021/07/15 06:38:08;;;;;;;13.72;10.60;;;;;;;30.16;47.79;99668.66;1808596;79;21309;-70
2021/07/15 06:40:35;;;;;;;12.47;9.40;;;;;;;30.15;47.32;99659.63;1808226;78;21078;-70
2021/07/15 06:43:01;;;;;;;11.20;8.80;;;;;;;30.16;47.16;99667.28;1814068;79;21021;-72
2021/07/15 06:45:28;;;;;;;11.45;9.68;;;;;;;30.17;46.86;99665.62;1811142;78;21123;-72
2021/07/15 06:47:56;;;;;;;13.20;10.43;;;;;;;30.18;46.62;99660.38;1793094;78;21593;-71
2021/07/15 06:50:23;;;;;;;9.90;9.05;;;;;;;30.21;46.80;99656.78;1786986;78;21107;-71
2021/07/15 06:52:49;;;;;;;11.18;10.08;;;;;;;30.21;45.62;99650.77;1783734;78;20994;-71
2021/07/15 06:55:16;;;;;;;9.78;8.88;;;;;;;30.21;45.13;99651.30;1807420;79;21479;-73
2021/07/15 06:57:44;;;;;;;12.37;9.75;;;;;;;30.21;44.80;99653.51;1802864;79;20970;-71
2021/07/15 07:00:14;;;;;;;10.70;9.48;;;;;;;30.22;44.73;99650.20;1811125;78;21565;-71
2021/07/15 07:02:44;;;;;;;15.23;12.50;;;;;;;30.21;45.18;99649.39;1802391;78;21358;-72
2021/07/15 07:05:12;;;;;;;18.60;14.73;;;;;;;30.21;44.97;99650.77;1797162;77;21176;-71
2021/07/15 07:07:38;;;;;;;16.17;13.45;;;;;;;30.20;44.80;99645.02;1797081;78;21298;-72
2021/07/15 07:10:08;;;;;;;17.15;13.90;;;;;;;30.21;44.82;99652.67;1806202;77;21022;-72
2021/07/15 07:12:34;;;;;;;18.52;14.38;;;;;;;30.22;44.92;99648.83;1818092;78;21029;-71
2021/07/15 07:15:01;;;;;;;24.37;16.75;;;;;;;30.22;45.05;99651.01;1810418;78;21135;-71
2021/07/15 07:17:28;;;;;;;25.77;16.93;;;;;;;30.24;45.20;99653.45;1821893;78;21571;-71
2021/07/15 07:19:55;;;;;;;25.00;17.32;;;;;;;30.25;45.49;99658.64;1818787;78;21052;-72
2021/07/15 07:22:21;;;;;;;20.23;13.55;;;;;;;30.26;45.76;99657.50;1815747;77;21341;-69
2021/07/15 07:24:48;;;;;;;16.75;13.85;;;;;;;30.28;49.22;99658.02;1816018;77;21033;-72
2021/07/15 07:27:14;;;;;;;17.85;14.03;;;;;;;30.28;53.28;99656.64;1815724;77;23350;-70
2021/07/15 07:29:41;;;;;;;16.67;13.55;;;;;;;30.29;53.36;99657.45;1818380;77;21040;-71
2021/07/15 07:32:07;;;;;;;22.65;14.68;;;;;;;30.26;54.93;99656.14;1813523;77;21017;-71
2021/07/15 07:34:35;;;;;;;19.15;13.90;;;;;;;30.24;56.04;99661.10;1816918;77;21056;-72
2021/07/15 07:37:04;;;;;;;17.57;14.23;;;;;;;30.22;57.00;99653.75;1815296;77;21001;-72
2021/07/15 07:39:30;;;;;;;17.23;14.15;;;;;;;30.20;57.74;99660.08;1814098;77;21126;-72
2021/07/15 07:41:58;;;;;;;15.78;13.80;;;;;;;30.18;58.21;99659.58;1814761;77;21066;-72
2021/07/15 07:44:24;;;;;;;16.55;13.95;;;;;;;30.17;58.80;99660.14;1817302;77;21631;-71
2021/07/15 07:46:52;;;;;;;19.67;13.18;;;;;;;30.15;59.13;99659.63;1810927;78;20998;-72
2021/07/15 07:49:19;;;;;;;18.45;13.80;;;;;;;30.14;59.26;99659.92;1816088;77;21067;-71
2021/07/15 07:51:47;;;;;;;16.93;13.53;;;;;;;30.12;59.42;99662.16;1814635;77;23054;-71
2021/07/15 07:54:14;;;;;;;14.23;12.68;;;;;;;30.10;59.78;99658.91;1816433;77;21069;-73
2021/07/15 07:56:41;;;;;;;14.38;12.88;;;;;;;30.08;59.36;99661.12;1820367;77;21509;-72
2021/07/15 07:59:08;;;;;;;14.20;12.70;;;;;;;30.05;58.80;99657.61;1816516;77;21092;-74
2021/07/15 08:01:35;;;;;;;14.98;12.45;;;;;;;30.04;58.36;99657.34;1812751;78;21095;-73
2021/07/15 08:04:02;;;;;;;14.80;13.28;;;;;;;30.00;58.07;99659.89;1817928;77;21470;-71
2021/07/15 08:06:37;;;;;;;15.00;12.18;;;;;;;29.97;57.23;99658.55;1801079;77;21065;-73
2021/07/15 08:09:08;;;;;;;17.02;12.78;;;;;;;29.94;56.51;99656.42;1799488;77;21556;-71
2021/07/15 08:11:35;;;;;;;14.13;12.63;;;;;;;29.90;56.44;99660.88;1798953;77;21041;-70
2021/07/15 08:14:02;;;;;;;13.72;12.33;;;;;;;29.87;55.43;99661.45;1803953;77;21073;-70
2021/07/15 08:16:28;;;;;;;13.05;11.63;;;;;;;29.83;54.83;99660.43;1800465;77;21099;-71
2021/07/15 08:18:56;;;;;;;13.15;11.90;;;;;;;29.80;54.35;99666.48;1796160;77;20991;-70
2021/07/15 08:21:24;;;;;;;13.85;12.33;;;;;;;29.76;53.87;99661.36;1797199;77;21072;-72
2021/07/15 08:23:51;;;;;;;13.45;12.03;;;;;;;29.72;53.70;99654.82;1798818;77;21149;-77
2021/07/15 08:26:18;;;;;;;14.07;12.18;;;;;;;29.69;53.42;99658.14;1798692;77;21073;-69
2021/07/15 08:28:45;;;;;;;14.55;12.40;;;;;;;29.64;53.70;99652.20;1801859;77;21573;-70
2021/07/15 08:31:12;;;;;;;15.05;11.80;;;;;;;29.64;53.81;99656.88;1799820;77;22245;-69
2021/07/15 08:33:38;;;;;;;13.08;11.88;;;;;;;29.60;53.47;99651.98;1798735;77;20998;-70
2021/07/15 08:36:05;;;;;;;12.37;11.28;;;;;;;29.58;53.20;99652.03;1800689;77;21104;-71
2021/07/15 08:38:31;;;;;;;12.50;10.82;;;;;;;29.55;53.01;99649.34;1797417;77;21069;-70
2021/07/15 08:40:58;;;;;;;11.75;10.53;;;;;;;29.53;52.84;99649.36;1799834;77;21139;-65
2021/07/15 08:43:24;;;;;;;12.60;11.33;;;;;;;29.50;52.87;99649.41;1798255;77;20978;-68
2021/07/15 08:45:51;;;;;;;11.85;10.75;;;;;;;29.48;52.90;99648.89;1798481;77;21088;-69
2021/07/15 08:48:20;;;;;;;12.53;11.33;;;;;;;29.47;52.76;99647.81;1797497;77;21105;-67
2021/07/15 08:50:49;;;;;;;12.20;10.80;;;;;;;29.44;52.64;99650.59;1798653;77;21057;-67
2021/07/15 08:53:17;;;;;;;13.45;10.75;;;;;;;29.42;52.56;99648.71;1779478;78;21919;-68
2021/07/15 08:58:18;;;;;;;12.28;11.08;;;;;;;29.38;52.18;99649.02;1803403;77;20995;-70
2021/07/15 09:00:45;;;;;;;12.30;11.05;;;;;;;29.35;52.49;99649.63;1796927;77;21400;-70
2021/07/15 09:03:11;;;;;;;12.03;10.72;;;;;;;29.34;52.64;99654.83;1801455;77;21133;-68
2021/07/15 09:05:38;;;;;;;12.30;11.03;;;;;;;29.34;52.72;99658.92;1800325;77;21129;-68
2021/07/15 09:08:06;;;;;;;11.43;10.20;;;;;;;29.33;52.36;99636.80;1800348;78;21022;-67
2021/07/15 09:10:33;;;;;;;11.38;10.25;;;;;;;29.33;51.91;99638.17;1796819;77;21045;-70
2021/07/15 09:13:03;;;;;;;11.33;10.23;;;;;;;29.30;51.61;99633.27;1799984;77;22399;-68
2021/07/15 09:15:29;;;;;;;11.05;9.93;;;;;;;29.29;51.44;99637.13;1797952;77;21066;-70
2021/07/15 09:17:57;;;;;;;11.15;10.15;;;;;;;29.28;51.21;99633.56;1798963;78;21112;-71
2021/07/15 09:20:25;;;;;;;11.80;10.55;;;;;;;29.27;51.25;99638.79;1801106;77;21065;-68
2021/07/15 09:23:00;;;;;;;10.58;9.65;;;;;;;29.25;50.96;99625.16;1784346;78;21109;-70
2021/07/15 09:25:32;;;;;;;10.93;9.93;;;;;;;29.24;50.67;99627.05;1803396;77;21069;-67
2021/07/15 09:27:59;;;;;;;11.43;10.32;;;;;;;29.23;50.57;99630.92;1793133;77;21115;-67
2021/07/15 09:30:26;;;;;;;11.03;9.98;;;;;;;29.23;50.72;99626.01;1800484;77;22078;-68
2021/07/15 09:33:00;;;;;;;12.05;10.82;;;;;;;29.21;50.47;99633.94;1797189;77;21032;-72
2021/07/15 09:35:38;;;;;;;20.70;10.40;;;;;;;29.21;50.55;99631.20;1797272;77;21022;-73
2021/07/15 09:38:19;;;;;;;24.63;9.98;;;;;;;29.21;50.91;99628.47;1796146;77;21063;-72
2021/07/15 09:41:00;;;;;;;21.10;10.05;;;;;;;29.24;50.78;99628.98;1800329;77;21096;-74
2021/07/15 09:43:37;;;;;;;38.17;17.57;;;;;;;29.24;50.91;99620.22;1797996;78;21119;-74
2021/07/15 09:46:17;;;;;;;21.65;12.18;;;;;;;29.16;51.33;99597.64;1772345;79;21034;-70
2021/07/15 09:49:02;;;;;;;12.78;10.03;;;;;;;29.27;52.05;99616.10;1754735;79;21044;-73
2021/07/15 09:51:41;;;;;;;12.40;10.10;;;;;;;29.27;51.84;99614.73;1754399;80;21042;-71
2021/07/15 09:54:09;;;;;;;10.48;9.40;;;;;;;29.25;51.41;99612.28;1756869;79;21136;-70
2021/07/15 09:56:46;;;;;;;11.55;9.75;;;;;;;29.23;51.16;99617.80;1755300;79;21278;-69
2021/07/15 09:59:12;;;;;;;10.58;9.40;;;;;;;29.21;50.99;99609.33;1752537;79;21595;-70
2021/07/15 10:01:47;;;;;;;11.78;10.08;;;;;;;29.18;50.91;99609.91;1755006;81;21135;-69
2021/07/15 10:04:29;;;;;;;10.00;8.98;;;;;;;29.18;50.70;99626.31;1754914;79;21018;-69
2021/07/15 10:06:57;;;;;;;12.73;10.30;;;;;;;29.17;50.74;99628.80;1783397;78;21093;-68
2021/07/15 10:09:28;;;;;;;11.50;9.98;;;;;;;29.16;50.00;99635.93;1784857;78;21076;-73
2021/07/15 10:11:56;;;;;;;11.88;9.83;;;;;;;29.15;49.83;99621.45;1785120;78;21148;-73
2021/07/15 10:14:41;;;;;;;10.23;9.03;;;;;;;29.15;49.32;99611.87;1787958;78;21038;-72
2021/07/15 10:17:09;;;;;;;9.43;8.35;;;;;;;29.16;49.04;99614.05;1786497;79;21041;-71
2021/07/15 10:19:36;;;;;;;11.73;8.95;;;;;;;29.16;49.73;99612.12;1783781;78;21029;-73
2021/07/15 10:22:08;;;;;;;11.10;9.35;;;;;;;29.19;51.00;99604.70;1784691;79;22015;-73
2021/07/15 10:24:35;;;;;;;10.70;8.75;;;;;;;29.25;50.90;99599.17;1754719;80;21070;-74
2021/07/15 10:27:11;;;;;;;10.20;9.20;;;;;;;29.30;51.15;99608.09;1762923;80;21046;-75
2021/07/15 10:29:39;;;;;;;10.98;9.28;;;;;;;29.35;51.68;99603.12;1783417;78;21065;-70
2021/07/15 10:32:07;;;;;;;10.23;9.33;;;;;;;29.39;51.77;99596.74;1784181;79;21498;-68
2021/07/15 10:34:33;;;;;;;12.15;9.73;;;;;;;29.43;50.70;99603.80;1758334;80;21096;-70
2021/07/15 10:37:02;;;;;;;10.75;9.65;;;;;;;29.47;51.19;99599.36;1785791;78;21032;-70
2021/07/15 10:39:29;;;;;;;10.43;9.40;;;;;;;29.52;50.57;99595.75;1783659;78;21140;-68
2021/07/15 10:41:58;;;;;;;11.22;9.98;;;;;;;29.54;50.03;99582.02;1784217;78;21522;-69
2021/07/15 10:44:28;;;;;;;10.70;9.75;;;;;;;29.58;49.45;99594.55;1785191;80;21085;-69
2021/07/15 10:46:59;;;;;;;11.75;10.65;;;;;;;29.61;49.65;99596.67;1780563;79;21490;-69
2021/07/15 10:49:26;;;;;;;11.18;9.95;;;;;;;29.66;50.11;99591.13;1752229;79;21064;-69
2021/07/15 10:51:56;;;;;;;10.95;9.58;;;;;;;29.70;48.70;99598.20;1776486;78;20997;-70
2021/07/15 10:54:23;;;;;;;13.90;10.30;;;;;;;29.76;48.99;99592.92;1778009;79;21581;-71
2021/07/15 10:56:51;;;;;;;11.30;10.10;;;;;;;29.80;48.23;99592.57;1787699;78;21076;-73
2021/07/15 10:59:31;;;;;;;10.95;9.85;;;;;;;29.84;47.63;99590.05;1780553;79;21057;-74
2021/07/15 11:02:02;;;;;;;12.30;9.40;;;;;;;29.86;48.72;99587.26;1760322;80;21507;-73
2021/07/15 11:04:37;;;;;;;12.45;8.58;;;;;;;29.87;48.15;99584.79;1758258;80;21598;-70
2021/07/15 11:07:34;;;;;;;9.83;8.83;;;;;;;29.90;48.00;99588.31;1750262;80;21097;-71
2021/07/15 11:10:21;;;;;;;9.80;8.90;;;;;;;29.91;48.23;99577.59;1746643;81;21062;-70
2021/07/15 11:13:05;;;;;;;10.75;9.28;;;;;;;29.92;47.76;99573.76;1741448;81;21110;-68
2021/07/15 11:15:55;;;;;;;10.18;9.15;;;;;;;29.92;47.74;99572.39;1737246;81;21047;-73
2021/07/15 11:18:49;;;;;;;9.40;8.48;;;;;;;29.92;47.89;99581.97;1743636;81;21609;-70
2021/07/15 11:21:32;;;;;;;9.10;8.30;;;;;;;29.94;48.16;99579.75;1744409;81;21087;-74
2021/07/15 11:24:09;;;;;;;10.50;9.43;;;;;;;29.95;48.22;99562.75;1766534;78;21051;-71
2021/07/15 11:26:41;;;;;;;9.83;8.83;;;;;;;29.98;47.86;99566.27;1753926;80;21208;-72
2021/07/15 11:29:12;;;;;;;;;;;;;;;30.00;47.68;99568.14;1759275;80;21347;-71
2021/07/15 11:31:48;;;;;;;8.93;8.05;;;;;;;30.02;47.17;99556.86;1760130;78;20211;-72
2021/07/15 11:34:40;;;;;;;9.38;8.58;;;;;;;29.98;46.83;99556.68;1765957;78;21031;-69
2021/07/15 11:37:33;;;;;;;9.60;8.70;;;;;;;29.99;46.35;99550.87;1756870;79;21062;-68
2021/07/15 11:40:06;;;;;;;9.50;8.68;;;;;;;30.01;45.64;99555.25;1756415;80;21114;-71